sensor_id;sensor_type;location;lat;lon;timestamp;temperature;humidity
6948;DHT22;3513;47.664;9.162;2023-01-04T00:01:15;6.10;99.90
6948;DHT22;3513;47.664;9.162;2023-01-04T00:03:41;6.10;99.90
6948;DHT22;3513;47.664;9.162;2023-01-04T00:06:09;6.10;99.90
6948;DHT22;3513;47.664;9.162;2023-01-04T00:08:35;6.10;99.90
6948;DHT22;3513;47.664;9.162;2023-01-04T00:11:06;6.30;99.90
6948;DHT22;3513;47.664;9.162;2023-01-04T00:13:33;6.20;99.90
6948;DHT22;3513;47.664;9.162;2023-01-04T00:16:03;6.10;99.90
6948;DHT22;3513;47.664;9.162;2023-01-04T00:18:30;6.00;99.90
6948;DHT22;3513;47.664;9.162;2023-01-04T00:21:09;5.80;99.90
6948;DHT22;3513;47.664;9.162;2023-01-04T00:23:36;5.70;99.90
6948;DHT22;3513;47.664;9.162;2023-01-04T00:26:06;5.70;99.90
6948;DHT22;3513;47.664;9.162;2023-01-04T00:28:32;5.60;99.90
6948;DHT22;3513;47.664;9.162;2023-01-04T00:31:01;5.50;99.90
6948;DHT22;3513;47.664;9.162;2023-01-04T00:33:27;5.40;99.90
6948;DHT22;3513;47.664;9.162;2023-01-04T00:35:53;5.40;99.90
6948;DHT22;3513;47.664;9.162;2023-01-04T00:38:18;5.40;99.90
6948;DHT22;3513;47.664;9.162;2023-01-04T00:40:44;5.40;99.90
6948;DHT22;3513;47.664;9.162;2023-01-04T00:43:09;5.30;99.90
6948;DHT22;3513;47.664;9.162;2023-01-04T00:45:35;5.40;99.90
6948;DHT22;3513;47.664;9.162;2023-01-04T00:48:00;5.40;99.90
6948;DHT22;3513;47.664;9.162;2023-01-04T00:50:26;5.30;99.90
6948;DHT22;3513;47.664;9.162;2023-01-04T00:52:51;5.50;99.90
6948;DHT22;3513;47.664;9.162;2023-01-04T00:55:17;5.50;99.90
6948;DHT22;3513;47.664;9.162;2023-01-04T00:57:42;5.50;99.90
6948;DHT22;3513;47.664;9.162;2023-01-04T01:00:09;5.50;99.90
6948;DHT22;3513;47.664;9.162;2023-01-04T01:02:34;5.60;99.90
6948;DHT22;3513;47.664;9.162;2023-01-04T01:05:00;5.60;99.90
6948;DHT22;3513;47.664;9.162;2023-01-04T01:07:25;5.60;99.90
6948;DHT22;3513;47.664;9.162;2023-01-04T01:09:51;5.60;99.90
6948;DHT22;3513;47.664;9.162;2023-01-04T01:12:17;5.60;99.90
6948;DHT22;3513;47.664;9.162;2023-01-04T01:14:42;5.60;99.90
6948;DHT22;3513;47.664;9.162;2023-01-04T01:17:08;5.70;99.90
6948;DHT22;3513;47.664;9.162;2023-01-04T01:19:33;5.60;99.90
6948;DHT22;3513;47.664;9.162;2023-01-04T01:21:59;5.70;99.90
6948;DHT22;3513;47.664;9.162;2023-01-04T01:24:25;5.80;99.90
6948;DHT22;3513;47.664;9.162;2023-01-04T01:29:17;5.90;99.90
6948;DHT22;3513;47.664;9.162;2023-01-04T01:31:43;6.10;99.90
6948;DHT22;3513;47.664;9.162;2023-01-04T01:34:08;6.10;99.90
6948;DHT22;3513;47.664;9.162;2023-01-04T01:36:34;6.20;99.90
6948;DHT22;3513;47.664;9.162;2023-01-04T01:39:00;4.70;99.90
6948;DHT22;3513;47.664;9.162;2023-01-04T01:41:31;6.10;99.90
6948;DHT22;3513;47.664;9.162;2023-01-04T01:51:52;6.20;99.90
6948;DHT22;3513;47.664;9.162;2023-01-04T01:54:23;6.30;99.90
6948;DHT22;3513;47.664;9.162;2023-01-04T01:56:55;6.30;99.90
6948;DHT22;3513;47.664;9.162;2023-01-04T01:59:22;6.30;99.90
6948;DHT22;3513;47.664;9.162;2023-01-04T02:01:48;6.30;99.90
6948;DHT22;3513;47.664;9.162;2023-01-04T02:04:15;6.30;99.90
6948;DHT22;3513;47.664;9.162;2023-01-04T02:06:46;6.20;99.90
6948;DHT22;3513;47.664;9.162;2023-01-04T02:09:13;6.20;99.90
6948;DHT22;3513;47.664;9.162;2023-01-04T02:11:39;6.20;99.90
6948;DHT22;3513;47.664;9.162;2023-01-04T02:14:06;6.20;99.90
6948;DHT22;3513;47.664;9.162;2023-01-04T02:33:53;6.20;99.90
6948;DHT22;3513;47.664;9.162;2023-01-04T02:42:53;6.10;99.90
6948;DHT22;3513;47.664;9.162;2023-01-04T02:45:45;6.10;99.90
6948;DHT22;3513;47.664;9.162;2023-01-04T02:48:13;6.10;99.90
6948;DHT22;3513;47.664;9.162;2023-01-04T02:51:27;6.00;99.90
6948;DHT22;3513;47.664;9.162;2023-01-04T02:53:54;6.10;99.90
6948;DHT22;3513;47.664;9.162;2023-01-04T03:05:49;6.10;99.90
6948;DHT22;3513;47.664;9.162;2023-01-04T03:08:52;6.20;99.90
6948;DHT22;3513;47.664;9.162;2023-01-04T03:14:18;6.30;99.90
6948;DHT22;3513;47.664;9.162;2023-01-04T03:16:46;6.50;99.90
6948;DHT22;3513;47.664;9.162;2023-01-04T03:19:13;6.40;99.90
6948;DHT22;3513;47.664;9.162;2023-01-04T03:22:02;6.50;99.90
6948;DHT22;3513;47.664;9.162;2023-01-04T03:24:28;6.40;99.90
6948;DHT22;3513;47.664;9.162;2023-01-04T03:27:13;6.50;99.90
6948;DHT22;3513;47.664;9.162;2023-01-04T03:30:04;6.40;99.90
6948;DHT22;3513;47.664;9.162;2023-01-04T03:33:00;6.30;99.90
6948;DHT22;3513;47.664;9.162;2023-01-04T03:35:48;6.30;99.90
6948;DHT22;3513;47.664;9.162;2023-01-04T03:38:21;6.60;99.90
6948;DHT22;3513;47.664;9.162;2023-01-04T03:41:20;6.60;99.90
6948;DHT22;3513;47.664;9.162;2023-01-04T03:44:29;6.40;99.90
6948;DHT22;3513;47.664;9.162;2023-01-04T03:48:00;6.30;99.90
6948;DHT22;3513;47.664;9.162;2023-01-04T03:50:28;6.30;99.90
6948;DHT22;3513;47.664;9.162;2023-01-04T03:52:55;6.60;99.90
6948;DHT22;3513;47.664;9.162;2023-01-04T03:55:24;6.50;99.90
6948;DHT22;3513;47.664;9.162;2023-01-04T03:57:51;6.40;99.90
6948;DHT22;3513;47.664;9.162;2023-01-04T04:00:18;6.40;99.90
6948;DHT22;3513;47.664;9.162;2023-01-04T04:02:47;6.50;99.90
6948;DHT22;3513;47.664;9.162;2023-01-04T04:05:19;6.40;99.90
6948;DHT22;3513;47.664;9.162;2023-01-04T04:08:04;6.40;99.90
6948;DHT22;3513;47.664;9.162;2023-01-04T04:10:48;6.30;99.90
6948;DHT22;3513;47.664;9.162;2023-01-04T04:13:14;6.60;99.90
6948;DHT22;3513;47.664;9.162;2023-01-04T04:18:05;6.50;99.90
6948;DHT22;3513;47.664;9.162;2023-01-04T04:20:31;6.60;99.90
6948;DHT22;3513;47.664;9.162;2023-01-04T04:22:57;6.60;99.90
6948;DHT22;3513;47.664;9.162;2023-01-04T04:25:23;6.40;99.90
6948;DHT22;3513;47.664;9.162;2023-01-04T04:27:48;6.20;99.90
6948;DHT22;3513;47.664;9.162;2023-01-04T04:30:14;6.20;99.90
6948;DHT22;3513;47.664;9.162;2023-01-04T04:35:06;6.10;99.90
6948;DHT22;3513;47.664;9.162;2023-01-04T04:37:32;6.10;99.90
6948;DHT22;3513;47.664;9.162;2023-01-04T04:42:24;5.80;99.90
6948;DHT22;3513;47.664;9.162;2023-01-04T04:44:50;5.50;99.90
6948;DHT22;3513;47.664;9.162;2023-01-04T04:47:15;5.60;99.90
6948;DHT22;3513;47.664;9.162;2023-01-04T04:49:41;5.80;99.90
6948;DHT22;3513;47.664;9.162;2023-01-04T04:52:06;5.60;99.90
6948;DHT22;3513;47.664;9.162;2023-01-04T04:56:58;5.40;99.90
6948;DHT22;3513;47.664;9.162;2023-01-04T04:59:24;5.40;99.90
6948;DHT22;3513;47.664;9.162;2023-01-04T05:01:49;5.30;99.90
6948;DHT22;3513;47.664;9.162;2023-01-04T05:04:15;5.20;99.90
6948;DHT22;3513;47.664;9.162;2023-01-04T05:06:44;5.30;99.90
6948;DHT22;3513;47.664;9.162;2023-01-04T05:09:14;5.30;99.90
6948;DHT22;3513;47.664;9.162;2023-01-04T05:11:40;5.30;99.90
6948;DHT22;3513;47.664;9.162;2023-01-04T05:16:50;5.30;99.90
6948;DHT22;3513;47.664;9.162;2023-01-04T05:19:16;5.20;99.90
6948;DHT22;3513;47.664;9.162;2023-01-04T05:21:41;5.10;99.90
6948;DHT22;3513;47.664;9.162;2023-01-04T05:24:07;5.00;99.90
6948;DHT22;3513;47.664;9.162;2023-01-04T05:26:34;5.10;99.90
6948;DHT22;3513;47.664;9.162;2023-01-04T05:31:26;5.10;99.90
6948;DHT22;3513;47.664;9.162;2023-01-04T05:33:52;4.90;99.90
6948;DHT22;3513;47.664;9.162;2023-01-04T05:41:09;4.90;99.90
6948;DHT22;3513;47.664;9.162;2023-01-04T05:43:54;5.00;99.90
6948;DHT22;3513;47.664;9.162;2023-01-04T05:46:19;4.90;99.90
6948;DHT22;3513;47.664;9.162;2023-01-04T05:48:45;4.80;99.90
6948;DHT22;3513;47.664;9.162;2023-01-04T05:53:37;5.00;99.90
6948;DHT22;3513;47.664;9.162;2023-01-04T05:56:03;5.00;99.90
6948;DHT22;3513;47.664;9.162;2023-01-04T06:03:21;5.10;99.90
6948;DHT22;3513;47.664;9.162;2023-01-04T06:05:50;5.00;99.90
6948;DHT22;3513;47.664;9.162;2023-01-04T06:08:16;5.00;99.90
6948;DHT22;3513;47.664;9.162;2023-01-04T06:10:41;5.00;99.90
6948;DHT22;3513;47.664;9.162;2023-01-04T06:13:07;5.00;99.90
6948;DHT22;3513;47.664;9.162;2023-01-04T06:15:32;5.00;99.90
6948;DHT22;3513;47.664;9.162;2023-01-04T06:17:58;5.00;99.90
6948;DHT22;3513;47.664;9.162;2023-01-04T06:20:24;5.00;99.90
6948;DHT22;3513;47.664;9.162;2023-01-04T06:22:49;5.10;99.90
6948;DHT22;3513;47.664;9.162;2023-01-04T06:25:15;5.20;99.90
6948;DHT22;3513;47.664;9.162;2023-01-04T06:27:41;5.10;99.90
6948;DHT22;3513;47.664;9.162;2023-01-04T06:30:07;5.10;99.90
6948;DHT22;3513;47.664;9.162;2023-01-04T06:32:33;5.20;99.90
6948;DHT22;3513;47.664;9.162;2023-01-04T06:34:59;5.20;99.90
6948;DHT22;3513;47.664;9.162;2023-01-04T06:39:51;5.20;99.90
6948;DHT22;3513;47.664;9.162;2023-01-04T06:42:17;5.30;99.90
6948;DHT22;3513;47.664;9.162;2023-01-04T06:45:01;5.30;99.90
6948;DHT22;3513;47.664;9.162;2023-01-04T06:49:53;5.20;99.90
6948;DHT22;3513;47.664;9.162;2023-01-04T06:52:19;6.70;99.90
6948;DHT22;3513;47.664;9.162;2023-01-04T06:54:45;5.20;99.90
6948;DHT22;3513;47.664;9.162;2023-01-04T06:57:11;5.20;99.90
6948;DHT22;3513;47.664;9.162;2023-01-04T06:59:37;5.20;99.90
6948;DHT22;3513;47.664;9.162;2023-01-04T07:09:22;5.30;99.90
6948;DHT22;3513;47.664;9.162;2023-01-04T07:11:47;5.40;99.90
6948;DHT22;3513;47.664;9.162;2023-01-04T07:14:13;7.50;99.90
6948;DHT22;3513;47.664;9.162;2023-01-04T07:16:39;5.40;99.90
6948;DHT22;3513;47.664;9.162;2023-01-04T07:19:07;5.50;99.90
6948;DHT22;3513;47.664;9.162;2023-01-04T07:21:32;9.30;99.90
6948;DHT22;3513;47.664;9.162;2023-01-04T07:23:58;8.90;99.90
6948;DHT22;3513;47.664;9.162;2023-01-04T07:26:23;5.60;99.90
6948;DHT22;3513;47.664;9.162;2023-01-04T07:28:49;5.60;99.90
6948;DHT22;3513;47.664;9.162;2023-01-04T07:31:33;5.80;99.90
6948;DHT22;3513;47.664;9.162;2023-01-04T07:33:59;5.70;99.90
6948;DHT22;3513;47.664;9.162;2023-01-04T07:36:24;5.70;99.90
6948;DHT22;3513;47.664;9.162;2023-01-04T07:38:50;5.90;99.90
6948;DHT22;3513;47.664;9.162;2023-01-04T07:41:16;5.90;99.90
6948;DHT22;3513;47.664;9.162;2023-01-04T07:43:41;7.20;99.90
6948;DHT22;3513;47.664;9.162;2023-01-04T07:46:07;6.60;99.90
6948;DHT22;3513;47.664;9.162;2023-01-04T07:48:33;5.90;99.90
6948;DHT22;3513;47.664;9.162;2023-01-04T07:53:24;6.00;99.90
6948;DHT22;3513;47.664;9.162;2023-01-04T07:55:56;6.10;99.90
6948;DHT22;3513;47.664;9.162;2023-01-04T07:58:22;6.10;99.90
6948;DHT22;3513;47.664;9.162;2023-01-04T08:03:14;6.10;99.90
6948;DHT22;3513;47.664;9.162;2023-01-04T08:05:39;6.10;99.90
6948;DHT22;3513;47.664;9.162;2023-01-04T08:08:07;6.10;99.90
6948;DHT22;3513;47.664;9.162;2023-01-04T08:10:32;6.20;99.90
6948;DHT22;3513;47.664;9.162;2023-01-04T08:12:58;7.60;99.90
6948;DHT22;3513;47.664;9.162;2023-01-04T08:15:27;6.30;99.90
6948;DHT22;3513;47.664;9.162;2023-01-04T08:17:55;6.20;99.90
6948;DHT22;3513;47.664;9.162;2023-01-04T08:20:20;6.40;99.90
6948;DHT22;3513;47.664;9.162;2023-01-04T08:22:46;7.30;99.90
6948;DHT22;3513;47.664;9.162;2023-01-04T08:25:12;6.70;99.90
6948;DHT22;3513;47.664;9.162;2023-01-04T08:30:04;6.80;99.90
6948;DHT22;3513;47.664;9.162;2023-01-04T08:34:56;7.40;99.90
6948;DHT22;3513;47.664;9.162;2023-01-04T08:39:47;7.40;99.90
6948;DHT22;3513;47.664;9.162;2023-01-04T08:42:14;7.50;99.90
6948;DHT22;3513;47.664;9.162;2023-01-04T08:44:39;7.60;99.90
6948;DHT22;3513;47.664;9.162;2023-01-04T08:49:31;7.60;99.90
6948;DHT22;3513;47.664;9.162;2023-01-04T08:51:57;7.60;99.90
6948;DHT22;3513;47.664;9.162;2023-01-04T08:56:48;7.70;99.90
6948;DHT22;3513;47.664;9.162;2023-01-04T09:01:40;7.70;99.90
6948;DHT22;3513;47.664;9.162;2023-01-04T09:04:06;7.70;99.90
6948;DHT22;3513;47.664;9.162;2023-01-04T09:06:33;7.70;99.90
6948;DHT22;3513;47.664;9.162;2023-01-04T09:08:58;7.80;99.90
6948;DHT22;3513;47.664;9.162;2023-01-04T09:11:25;7.70;99.90
6948;DHT22;3513;47.664;9.162;2023-01-04T09:13:56;7.60;99.90
6948;DHT22;3513;47.664;9.162;2023-01-04T09:16:22;7.70;99.90
6948;DHT22;3513;47.664;9.162;2023-01-04T09:18:48;7.70;99.90
6948;DHT22;3513;47.664;9.162;2023-01-04T09:21:16;7.70;99.90
6948;DHT22;3513;47.664;9.162;2023-01-04T09:23:43;7.80;99.90
6948;DHT22;3513;47.664;9.162;2023-01-04T09:26:15;7.70;99.90
6948;DHT22;3513;47.664;9.162;2023-01-04T09:28:41;7.70;99.90
6948;DHT22;3513;47.664;9.162;2023-01-04T09:31:12;7.80;99.90
6948;DHT22;3513;47.664;9.162;2023-01-04T09:36:05;7.80;99.90
6948;DHT22;3513;47.664;9.162;2023-01-04T09:38:32;7.80;99.90
6948;DHT22;3513;47.664;9.162;2023-01-04T09:41:37;7.70;99.90
6948;DHT22;3513;47.664;9.162;2023-01-04T09:46:49;7.80;99.90
6948;DHT22;3513;47.664;9.162;2023-01-04T09:52:21;8.10;99.90
6948;DHT22;3513;47.664;9.162;2023-01-04T09:54:56;7.80;99.90
6948;DHT22;3513;47.664;9.162;2023-01-04T09:57:27;7.90;99.90
6948;DHT22;3513;47.664;9.162;2023-01-04T09:59:58;8.00;99.90
6948;DHT22;3513;47.664;9.162;2023-01-04T10:02:32;7.90;99.90
6948;DHT22;3513;47.664;9.162;2023-01-04T10:05:04;8.40;99.90
6948;DHT22;3513;47.664;9.162;2023-01-04T10:07:32;8.20;99.90
6948;DHT22;3513;47.664;9.162;2023-01-04T10:09:59;8.20;99.90
6948;DHT22;3513;47.664;9.162;2023-01-04T10:21:14;8.30;99.90
6948;DHT22;3513;47.664;9.162;2023-01-04T10:32:03;8.30;99.90
6948;DHT22;3513;47.664;9.162;2023-01-04T10:34:37;8.20;99.90
6948;DHT22;3513;47.664;9.162;2023-01-04T10:37:24;8.20;99.90
6948;DHT22;3513;47.664;9.162;2023-01-04T10:39:54;8.30;99.90
6948;DHT22;3513;47.664;9.162;2023-01-04T10:45:29;8.40;99.90
6948;DHT22;3513;47.664;9.162;2023-01-04T10:50:56;8.30;99.90
6948;DHT22;3513;47.664;9.162;2023-01-04T10:53:48;9.20;99.90
6948;DHT22;3513;47.664;9.162;2023-01-04T11:04:55;8.50;99.90
6948;DHT22;3513;47.664;9.162;2023-01-04T11:07:39;8.50;99.90
6948;DHT22;3513;47.664;9.162;2023-01-04T11:10:14;8.50;99.90
6948;DHT22;3513;47.664;9.162;2023-01-04T11:12:41;8.50;99.90
6948;DHT22;3513;47.664;9.162;2023-01-04T11:15:07;8.30;99.90
6948;DHT22;3513;47.664;9.162;2023-01-04T11:17:34;8.30;99.90
6948;DHT22;3513;47.664;9.162;2023-01-04T11:20:00;9.20;99.90
6948;DHT22;3513;47.664;9.162;2023-01-04T11:22:38;8.30;99.90
6948;DHT22;3513;47.664;9.162;2023-01-04T11:25:10;8.30;99.90
6948;DHT22;3513;47.664;9.162;2023-01-04T11:33:22;8.30;99.90
6948;DHT22;3513;47.664;9.162;2023-01-04T11:35:56;8.50;99.90
6948;DHT22;3513;47.664;9.162;2023-01-04T11:38:25;9.00;99.90
6948;DHT22;3513;47.664;9.162;2023-01-04T11:40:57;8.50;99.90
6948;DHT22;3513;47.664;9.162;2023-01-04T11:43:25;8.60;99.90
6948;DHT22;3513;47.664;9.162;2023-01-04T11:45:58;8.90;99.90
6948;DHT22;3513;47.664;9.162;2023-01-04T11:48:40;8.80;99.90
6948;DHT22;3513;47.664;9.162;2023-01-04T11:54:22;8.80;99.90
6948;DHT22;3513;47.664;9.162;2023-01-04T11:57:05;8.90;99.90
6948;DHT22;3513;47.664;9.162;2023-01-04T12:04:45;9.10;99.90
6948;DHT22;3513;47.664;9.162;2023-01-04T12:07:31;8.90;99.90
6948;DHT22;3513;47.664;9.162;2023-01-04T12:09:59;9.10;99.90
6948;DHT22;3513;47.664;9.162;2023-01-04T12:12:32;10.30;99.90
6948;DHT22;3513;47.664;9.162;2023-01-04T12:15:13;9.70;99.90
6948;DHT22;3513;47.664;9.162;2023-01-04T12:17:57;9.10;99.90
6948;DHT22;3513;47.664;9.162;2023-01-04T12:20:27;9.10;99.90
6948;DHT22;3513;47.664;9.162;2023-01-04T12:22:53;9.00;99.90
6948;DHT22;3513;47.664;9.162;2023-01-04T12:25:26;9.00;99.90
6948;DHT22;3513;47.664;9.162;2023-01-04T12:27:53;9.00;99.90
6948;DHT22;3513;47.664;9.162;2023-01-04T12:30:42;9.60;99.90
6948;DHT22;3513;47.664;9.162;2023-01-04T12:35:59;9.10;99.90
6948;DHT22;3513;47.664;9.162;2023-01-04T12:42:06;9.20;99.90
6948;DHT22;3513;47.664;9.162;2023-01-04T12:47:37;9.20;99.90
6948;DHT22;3513;47.664;9.162;2023-01-04T12:50:22;9.30;99.90
6948;DHT22;3513;47.664;9.162;2023-01-04T12:53:03;9.30;99.90
6948;DHT22;3513;47.664;9.162;2023-01-04T12:58:03;9.50;99.90
6948;DHT22;3513;47.664;9.162;2023-01-04T13:08:18;9.30;99.90
6948;DHT22;3513;47.664;9.162;2023-01-04T13:10:47;9.30;99.90
6948;DHT22;3513;47.664;9.162;2023-01-04T13:23:51;9.40;99.90
6948;DHT22;3513;47.664;9.162;2023-01-04T13:29:25;9.40;99.90
6948;DHT22;3513;47.664;9.162;2023-01-04T13:31:55;9.40;99.90
6948;DHT22;3513;47.664;9.162;2023-01-04T13:39:49;10.60;99.90
6948;DHT22;3513;47.664;9.162;2023-01-04T13:49:45;9.50;99.90
6948;DHT22;3513;47.664;9.162;2023-01-04T13:52:25;9.50;99.90
6948;DHT22;3513;47.664;9.162;2023-01-04T13:55:08;12.60;99.90
6948;DHT22;3513;47.664;9.162;2023-01-04T13:57:33;9.50;99.90
6948;DHT22;3513;47.664;9.162;2023-01-04T14:00:03;9.60;99.90
6948;DHT22;3513;47.664;9.162;2023-01-04T14:02:29;9.40;99.90
6948;DHT22;3513;47.664;9.162;2023-01-04T14:04:55;10.20;99.90
6948;DHT22;3513;47.664;9.162;2023-01-04T14:07:23;9.50;99.90
6948;DHT22;3513;47.664;9.162;2023-01-04T14:09:52;9.50;99.90
6948;DHT22;3513;47.664;9.162;2023-01-04T14:12:21;9.60;99.90
6948;DHT22;3513;47.664;9.162;2023-01-04T14:15:03;9.50;99.90
6948;DHT22;3513;47.664;9.162;2023-01-04T14:22:35;9.50;99.90
6948;DHT22;3513;47.664;9.162;2023-01-04T14:33:40;9.70;99.90
6948;DHT22;3513;47.664;9.162;2023-01-04T14:38:56;9.50;99.90
6948;DHT22;3513;47.664;9.162;2023-01-04T14:41:32;9.40;99.60
6948;DHT22;3513;47.664;9.162;2023-01-04T14:46:24;9.60;99.70
6948;DHT22;3513;47.664;9.162;2023-01-04T14:48:50;9.60;99.70
6948;DHT22;3513;47.664;9.162;2023-01-04T14:51:21;9.70;99.70
6948;DHT22;3513;47.664;9.162;2023-01-04T14:56:16;9.40;99.50
6948;DHT22;3513;47.664;9.162;2023-01-04T14:58:43;9.60;99.80
6948;DHT22;3513;47.664;9.162;2023-01-04T15:01:10;9.70;99.90
6948;DHT22;3513;47.664;9.162;2023-01-04T15:03:36;9.60;99.80
6948;DHT22;3513;47.664;9.162;2023-01-04T15:06:03;9.50;99.60
6948;DHT22;3513;47.664;9.162;2023-01-04T15:10:55;9.50;99.70
6948;DHT22;3513;47.664;9.162;2023-01-04T15:15:47;9.50;99.50
6948;DHT22;3513;47.664;9.162;2023-01-04T15:18:15;9.30;99.70
6948;DHT22;3513;47.664;9.162;2023-01-04T15:23:07;9.30;99.10
6948;DHT22;3513;47.664;9.162;2023-01-04T15:25:33;9.40;99.40
6948;DHT22;3513;47.664;9.162;2023-01-04T15:27:59;9.60;99.30
6948;DHT22;3513;47.664;9.162;2023-01-04T15:30:24;9.40;99.50
6948;DHT22;3513;47.664;9.162;2023-01-04T15:35:16;9.40;99.60
6948;DHT22;3513;47.664;9.162;2023-01-04T15:37:43;9.30;99.90
6948;DHT22;3513;47.664;9.162;2023-01-04T15:40:10;9.30;99.40
6948;DHT22;3513;47.664;9.162;2023-01-04T15:42:36;9.30;99.30
6948;DHT22;3513;47.664;9.162;2023-01-04T15:45:38;9.40;99.70
6948;DHT22;3513;47.664;9.162;2023-01-04T15:48:05;9.30;99.60
6948;DHT22;3513;47.664;9.162;2023-01-04T15:50:33;9.40;99.50
6948;DHT22;3513;47.664;9.162;2023-01-04T15:55:27;9.30;99.20
6948;DHT22;3513;47.664;9.162;2023-01-04T15:57:53;9.50;99.30
6948;DHT22;3513;47.664;9.162;2023-01-04T16:00:18;10.70;99.60
6948;DHT22;3513;47.664;9.162;2023-01-04T16:05:10;9.30;99.30
6948;DHT22;3513;47.664;9.162;2023-01-04T16:10:02;9.50;99.50
6948;DHT22;3513;47.664;9.162;2023-01-04T16:12:28;9.30;99.60
6948;DHT22;3513;47.664;9.162;2023-01-04T16:15:13;10.00;99.40
6948;DHT22;3513;47.664;9.162;2023-01-04T16:17:40;9.30;99.30
6948;DHT22;3513;47.664;9.162;2023-01-04T16:20:06;9.30;99.30
6948;DHT22;3513;47.664;9.162;2023-01-04T16:22:32;9.30;99.50
6948;DHT22;3513;47.664;9.162;2023-01-04T16:24:58;9.40;99.00
6948;DHT22;3513;47.664;9.162;2023-01-04T16:29:49;9.50;99.10
6948;DHT22;3513;47.664;9.162;2023-01-04T16:32:16;9.40;99.10
6948;DHT22;3513;47.664;9.162;2023-01-04T16:34:41;9.40;99.10
6948;DHT22;3513;47.664;9.162;2023-01-04T16:37:08;9.40;99.00
6948;DHT22;3513;47.664;9.162;2023-01-04T16:44:26;9.60;98.90
6948;DHT22;3513;47.664;9.162;2023-01-04T16:46:52;9.40;98.70
6948;DHT22;3513;47.664;9.162;2023-01-04T16:51:45;9.40;98.60
6948;DHT22;3513;47.664;9.162;2023-01-04T16:54:16;9.40;98.80
6948;DHT22;3513;47.664;9.162;2023-01-04T16:56:43;9.40;99.10
6948;DHT22;3513;47.664;9.162;2023-01-04T16:59:14;9.20;99.00
6948;DHT22;3513;47.664;9.162;2023-01-04T17:01:40;9.40;98.70
6948;DHT22;3513;47.664;9.162;2023-01-04T17:04:07;9.40;98.70
6948;DHT22;3513;47.664;9.162;2023-01-04T17:06:42;9.40;98.70
6948;DHT22;3513;47.664;9.162;2023-01-04T17:09:12;9.30;98.70
6948;DHT22;3513;47.664;9.162;2023-01-04T17:11:38;9.30;98.60
6948;DHT22;3513;47.664;9.162;2023-01-04T17:14:05;9.20;98.80
6948;DHT22;3513;47.664;9.162;2023-01-04T17:16:31;9.20;98.80
6948;DHT22;3513;47.664;9.162;2023-01-04T17:18:57;9.10;99.00
6948;DHT22;3513;47.664;9.162;2023-01-04T17:21:25;9.00;99.20
6948;DHT22;3513;47.664;9.162;2023-01-04T17:23:53;9.00;99.10
6948;DHT22;3513;47.664;9.162;2023-01-04T17:26:27;9.00;99.10
6948;DHT22;3513;47.664;9.162;2023-01-04T17:28:55;9.00;99.10
6948;DHT22;3513;47.664;9.162;2023-01-04T17:31:24;9.20;99.10
6948;DHT22;3513;47.664;9.162;2023-01-04T17:36:18;9.30;98.40
6948;DHT22;3513;47.664;9.162;2023-01-04T17:38:44;9.20;98.30
6948;DHT22;3513;47.664;9.162;2023-01-04T17:41:15;9.40;98.10
6948;DHT22;3513;47.664;9.162;2023-01-04T17:43:43;9.40;97.80
6948;DHT22;3513;47.664;9.162;2023-01-04T17:46:14;9.40;97.70
6948;DHT22;3513;47.664;9.162;2023-01-04T17:48:41;9.30;97.60
6948;DHT22;3513;47.664;9.162;2023-01-04T17:51:15;9.50;97.50
6948;DHT22;3513;47.664;9.162;2023-01-04T17:53:42;9.50;97.30
6948;DHT22;3513;47.664;9.162;2023-01-04T17:56:14;9.50;97.50
6948;DHT22;3513;47.664;9.162;2023-01-04T17:58:40;9.50;97.50
6948;DHT22;3513;47.664;9.162;2023-01-04T18:01:09;9.50;97.70
6948;DHT22;3513;47.664;9.162;2023-01-04T18:03:35;9.40;97.70
6948;DHT22;3513;47.664;9.162;2023-01-04T18:06:01;9.30;97.90
6948;DHT22;3513;47.664;9.162;2023-01-04T18:13:21;9.40;97.30
6948;DHT22;3513;47.664;9.162;2023-01-04T18:15:47;9.40;97.10
6948;DHT22;3513;47.664;9.162;2023-01-04T18:20:38;9.60;97.00
6948;DHT22;3513;47.664;9.162;2023-01-04T18:25:32;9.50;97.00
6948;DHT22;3513;47.664;9.162;2023-01-04T18:30:23;9.30;96.90
6948;DHT22;3513;47.664;9.162;2023-01-04T18:32:49;9.60;97.00
6948;DHT22;3513;47.664;9.162;2023-01-04T18:35:15;9.70;97.00
6948;DHT22;3513;47.664;9.162;2023-01-04T18:37:43;9.80;96.80
6948;DHT22;3513;47.664;9.162;2023-01-04T18:42:35;9.80;96.60
6948;DHT22;3513;47.664;9.162;2023-01-04T18:45:01;9.90;96.50
6948;DHT22;3513;47.664;9.162;2023-01-04T18:47:27;10.10;95.80
6948;DHT22;3513;47.664;9.162;2023-01-04T18:49:52;10.00;95.80
6948;DHT22;3513;47.664;9.162;2023-01-04T18:52:18;10.00;95.80
6948;DHT22;3513;47.664;9.162;2023-01-04T18:54:44;10.00;95.70
6948;DHT22;3513;47.664;9.162;2023-01-04T18:59:38;10.00;95.80
6948;DHT22;3513;47.664;9.162;2023-01-04T19:04:32;10.20;95.80
6948;DHT22;3513;47.664;9.162;2023-01-04T19:06:58;10.00;95.80
6948;DHT22;3513;47.664;9.162;2023-01-04T19:14:16;10.00;95.90
6948;DHT22;3513;47.664;9.162;2023-01-04T19:24:00;10.20;95.60
6948;DHT22;3513;47.664;9.162;2023-01-04T19:31:19;10.20;95.60
6948;DHT22;3513;47.664;9.162;2023-01-04T19:36:13;10.10;95.70
6948;DHT22;3513;47.664;9.162;2023-01-04T19:41:06;10.20;95.70
6948;DHT22;3513;47.664;9.162;2023-01-04T19:43:32;10.40;95.60
6948;DHT22;3513;47.664;9.162;2023-01-04T19:45:58;10.10;95.40
6948;DHT22;3513;47.664;9.162;2023-01-04T19:51:12;10.20;95.30
6948;DHT22;3513;47.664;9.162;2023-01-04T19:56:06;10.40;95.10
6948;DHT22;3513;47.664;9.162;2023-01-04T19:58:31;10.30;95.10
6948;DHT22;3513;47.664;9.162;2023-01-04T20:03:23;10.40;95.10
6948;DHT22;3513;47.664;9.162;2023-01-04T20:05:51;10.40;95.20
6948;DHT22;3513;47.664;9.162;2023-01-04T20:08:17;10.50;95.30
6948;DHT22;3513;47.664;9.162;2023-01-04T20:10:42;10.50;95.10
6948;DHT22;3513;47.664;9.162;2023-01-04T20:13:08;10.60;95.20
6948;DHT22;3513;47.664;9.162;2023-01-04T20:15:37;10.60;95.10
6948;DHT22;3513;47.664;9.162;2023-01-04T20:22:55;10.60;95.30
6948;DHT22;3513;47.664;9.162;2023-01-04T20:35:05;10.70;95.50
6948;DHT22;3513;47.664;9.162;2023-01-04T20:37:32;10.60;95.50
6948;DHT22;3513;47.664;9.162;2023-01-04T20:42:23;10.70;95.60
6948;DHT22;3513;47.664;9.162;2023-01-04T20:45:08;11.00;95.80
6948;DHT22;3513;47.664;9.162;2023-01-04T20:47:34;10.80;95.90
6948;DHT22;3513;47.664;9.162;2023-01-04T20:50:00;10.70;95.90
6948;DHT22;3513;47.664;9.162;2023-01-04T20:57:22;10.80;96.20
6948;DHT22;3513;47.664;9.162;2023-01-04T21:02:14;11.00;96.50
6948;DHT22;3513;47.664;9.162;2023-01-04T21:04:43;10.80;96.50
6948;DHT22;3513;47.664;9.162;2023-01-04T21:07:11;10.80;96.50
6948;DHT22;3513;47.664;9.162;2023-01-04T21:12:02;11.00;96.60
6948;DHT22;3513;47.664;9.162;2023-01-04T21:16:56;10.90;96.60
6948;DHT22;3513;47.664;9.162;2023-01-04T21:19:21;10.90;96.60
6948;DHT22;3513;47.664;9.162;2023-01-04T21:31:31;10.80;96.70
6948;DHT22;3513;47.664;9.162;2023-01-04T21:33:57;11.10;96.90
6948;DHT22;3513;47.664;9.162;2023-01-04T21:36:25;11.00;96.80
6948;DHT22;3513;47.664;9.162;2023-01-04T21:38:52;11.00;96.90
6948;DHT22;3513;47.664;9.162;2023-01-04T21:41:19;11.10;96.90
6948;DHT22;3513;47.664;9.162;2023-01-04T21:43:50;10.90;96.80
6948;DHT22;3513;47.664;9.162;2023-01-04T21:46:16;11.00;96.90
6948;DHT22;3513;47.664;9.162;2023-01-04T21:48:42;10.90;97.00
6948;DHT22;3513;47.664;9.162;2023-01-04T21:53:36;10.90;97.30
6948;DHT22;3513;47.664;9.162;2023-01-04T21:56:16;10.90;97.50
6948;DHT22;3513;47.664;9.162;2023-01-04T21:58:43;10.90;97.90
6948;DHT22;3513;47.664;9.162;2023-01-04T22:01:17;10.90;98.20
6948;DHT22;3513;47.664;9.162;2023-01-04T22:06:09;10.80;98.80
6948;DHT22;3513;47.664;9.162;2023-01-04T22:11:01;10.70;98.90
6948;DHT22;3513;47.664;9.162;2023-01-04T22:13:28;10.80;99.10
6948;DHT22;3513;47.664;9.162;2023-01-04T22:20:46;10.80;99.30
6948;DHT22;3513;47.664;9.162;2023-01-04T22:23:12;10.70;99.30